Time;durP1;ratioP1;P1;durP2;ratioP2;P2;SDS_P1;SDS_P2;PMS_P1;PMS_P2;Temp;Humidity;BMP_temperature;BMP_pressure;BME280_temperature;BME280_humidity;BME280_pressure;Samples;Min_cycle;Max_cycle;Signal;HPM_P1;HPM_P2
2021/05/03 00:00:43;;;;;;;4.37;3.47;;;;;;;8.23;65.27;98214.79;1750881;81;21310;-72
2021/05/03 00:03:12;;;;;;;4.72;3.40;;;;;;;8.24;65.32;98216.35;1754858;80;21146;-71
2021/05/03 00:05:45;;;;;;;4.40;3.52;;;;;;;8.22;65.32;98222.14;1758117;80;21164;-71
2021/05/03 00:08:06;;;;;;;4.75;3.47;;;;;;;8.23;65.33;98233.14;1741048;80;21674;-69
2021/05/03 00:10:32;;;;;;;4.33;3.77;;;;;;;8.20;65.45;98226.40;1755466;80;21326;-72
2021/05/03 00:12:58;;;;;;;4.95;4.12;;;;;;;8.19;65.60;98234.33;1751218;80;21176;-70
2021/05/03 00:15:24;;;;;;;4.25;3.70;;;;;;;8.17;65.80;98229.89;1746445;82;21144;-70
2021/05/03 00:17:50;;;;;;;4.45;3.65;;;;;;;8.19;65.85;98245.16;1746142;82;21189;-72
2021/05/03 00:20:16;;;;;;;4.67;3.70;;;;;;;8.18;65.88;98248.44;1750598;80;21185;-69
2021/05/03 00:22:42;;;;;;;5.00;4.10;;;;;;;8.15;66.01;98242.44;1751505;80;21205;-71
2021/05/03 00:25:08;;;;;;;4.90;4.20;;;;;;;8.13;66.09;98242.08;1747495;82;21648;-73
2021/05/03 00:27:34;;;;;;;5.35;4.25;;;;;;;8.18;66.23;98246.30;1751662;80;21137;-71
2021/05/03 00:30:00;;;;;;;5.90;4.12;;;;;;;8.18;66.32;98271.44;1751822;80;21557;-71
2021/05/03 00:32:27;;;;;;;5.67;4.30;;;;;;;8.19;66.34;98270.27;1760361;80;21311;-70
2021/05/03 00:34:53;;;;;;;5.33;4.45;;;;;;;8.21;66.37;98287.44;1747797;82;21200;-71
2021/05/03 00:37:19;;;;;;;5.72;4.28;;;;;;;8.17;66.36;98280.69;1767883;80;21328;-71
2021/05/03 00:39:45;;;;;;;5.28;4.25;;;;;;;8.14;66.51;98279.36;1755696;80;21216;-71
2021/05/03 00:42:12;;;;;;;5.20;4.30;;;;;;;8.13;66.16;98324.56;1755994;80;21156;-72
2021/05/03 00:44:38;;;;;;;5.25;4.60;;;;;;;8.10;65.79;98294.25;1751765;80;21148;-72
2021/05/03 00:47:04;;;;;;;5.22;4.33;;;;;;;8.08;65.93;98305.27;1756678;80;21143;-70
2021/05/03 00:49:30;;;;;;;5.17;4.53;;;;;;;8.06;65.95;98291.35;1751280;80;21165;-72
2021/05/03 00:51:56;;;;;;;5.90;4.22;;;;;;;8.05;65.84;98284.38;1750493;80;21189;-69
2021/05/03 00:54:22;;;;;;;5.75;4.37;;;;;;;8.05;65.73;98296.55;1748846;80;21172;-73
2021/05/03 00:56:48;;;;;;;5.35;4.45;;;;;;;8.00;65.66;98308.55;1751766;80;21207;-70
2021/05/03 00:59:14;;;;;;;5.70;4.22;;;;;;;7.98;65.76;98296.77;1751709;80;21590;-70
2021/05/03 01:01:40;;;;;;;5.37;4.45;;;;;;;8.00;65.58;98303.15;1759594;80;21228;-70
2021/05/03 01:04:06;;;;;;;5.05;4.55;;;;;;;7.98;65.40;98301.41;1766400;80;21274;-72
2021/05/03 01:06:32;;;;;;;5.53;4.80;;;;;;;7.95;65.09;98299.48;1765128;80;21193;-70
2021/05/03 01:08:59;;;;;;;6.25;4.50;;;;;;;7.94;64.94;98307.41;1761791;80;21164;-71
2021/05/03 01:11:25;;;;;;;5.05;4.50;;;;;;;7.94;64.83;98303.36;1753217;82;21615;-72
2021/05/03 01:13:51;;;;;;;5.42;4.58;;;;;;;7.91;64.83;98302.76;1757239;80;21323;-72
2021/05/03 01:16:17;;;;;;;5.17;4.67;;;;;;;7.87;64.91;98297.95;1761787;80;21172;-72
2021/05/03 01:18:43;;;;;;;4.90;4.37;;;;;;;7.79;65.04;98305.29;1753178;82;21550;-70
2021/05/03 01:21:09;;;;;;;5.35;4.50;;;;;;;7.72;65.08;98313.39;1753118;81;21168;-70
2021/05/03 01:23:35;;;;;;;5.42;4.60;;;;;;;7.64;65.16;98309.14;1753083;82;21752;-72
2021/05/03 01:26:01;;;;;;;5.30;4.80;;;;;;;7.54;65.06;98311.47;1753210;81;21335;-72
2021/05/03 01:28:28;;;;;;;6.22;5.00;;;;;;;7.47;64.92;98314.75;1761946;80;21189;-73
2021/05/03 01:30:54;;;;;;;5.65;4.60;;;;;;;7.42;64.94;98334.03;1757323;80;21160;-69
2021/05/03 01:33:20;;;;;;;5.72;4.40;;;;;;;7.41;64.93;98332.50;1753242;82;21740;-70
2021/05/03 01:35:47;;;;;;;5.25;4.72;;;;;;;7.34;64.91;98334.63;1761907;80;21180;-72
2021/05/03 01:38:14;;;;;;;5.70;4.45;;;;;;;7.27;64.90;98335.38;1738658;82;21422;-70
2021/05/03 01:40:41;;;;;;;6.62;4.90;;;;;;;7.22;64.90;98330.92;1762127;80;21157;-70
2021/05/03 01:43:20;;;;;;;5.20;4.37;;;;;;;7.16;64.96;98331.87;1770453;80;21180;-72
2021/05/03 01:45:46;;;;;;;5.10;4.60;;;;;;;7.13;64.98;98331.30;1758666;80;21171;-71
2021/05/03 01:48:21;;;;;;;5.40;4.65;;;;;;;7.04;65.02;98323.57;1758329;80;21153;-70
2021/05/03 01:50:47;;;;;;;5.60;4.72;;;;;;;7.00;64.99;98332.22;1759128;80;21165;-70
2021/05/03 01:53:13;;;;;;;5.67;4.90;;;;;;;6.96;64.92;98337.44;1754664;81;21503;-71
2021/05/03 01:55:39;;;;;;;5.33;4.78;;;;;;;6.93;64.99;98332.22;1761795;80;21172;-71
2021/05/03 01:58:06;;;;;;;5.95;4.72;;;;;;;6.91;65.13;98332.41;1758988;80;21201;-70
2021/05/03 02:00:33;;;;;;;5.72;5.05;;;;;;;6.88;65.07;98332.00;1758236;80;22450;-70
2021/05/03 02:02:59;;;;;;;6.75;4.90;;;;;;;6.89;65.28;98332.77;1763063;80;21180;-70
2021/05/03 02:05:25;;;;;;;6.53;5.17;;;;;;;6.93;65.35;98355.17;1751821;80;21183;-70
2021/05/03 02:08:05;;;;;;;5.80;5.20;;;;;;;7.00;65.22;98339.56;1751411;80;21730;-70
2021/05/03 02:10:32;;;;;;;6.35;5.33;;;;;;;7.10;65.19;98339.59;1751773;80;21189;-69
2021/05/03 02:12:58;;;;;;;5.75;5.15;;;;;;;7.16;64.98;98333.23;1751858;80;21177;-71
2021/05/03 02:15:25;;;;;;;5.85;4.80;;;;;;;7.24;64.91;98336.72;1755928;80;21165;-71
2021/05/03 02:17:51;;;;;;;5.60;4.90;;;;;;;7.30;64.81;98343.28;1764613;80;21585;-72
2021/05/03 02:20:17;;;;;;;5.90;4.90;;;;;;;7.34;64.84;98349.48;1756130;80;21167;-72
2021/05/03 02:22:44;;;;;;;6.33;4.97;;;;;;;7.38;64.51;98338.67;1751808;80;21181;-71
2021/05/03 02:25:10;;;;;;;5.75;5.15;;;;;;;7.41;64.46;98343.30;1753782;80;21620;-69
2021/05/03 02:27:36;;;;;;;6.25;4.90;;;;;;;7.42;64.71;98338.09;1747864;82;21500;-70
2021/05/03 02:30:03;;;;;;;6.10;5.00;;;;;;;7.48;64.66;98337.92;1747694;82;21161;-71
2021/05/03 02:32:30;;;;;;;6.15;4.70;;;;;;;7.28;64.78;98343.69;1759827;80;21225;-69
2021/05/03 02:34:56;;;;;;;5.20;4.70;;;;;;;7.51;64.40;98341.20;1760234;80;21531;-70
2021/05/03 02:37:24;;;;;;;5.12;4.58;;;;;;;7.50;64.39;98344.48;1758438;80;21141;-69
2021/05/03 02:39:50;;;;;;;5.83;4.55;;;;;;;7.48;64.24;98358.95;1761046;80;21160;-71
2021/05/03 02:42:16;;;;;;;5.72;5.03;;;;;;;7.48;64.19;98357.59;1756176;80;21312;-70
2021/05/03 02:44:43;;;;;;;5.60;4.45;;;;;;;7.49;64.19;98363.19;1758059;80;21595;-69
2021/05/03 02:47:09;;;;;;;4.97;4.47;;;;;;;7.51;64.29;98357.41;1753606;80;21173;-70
2021/05/03 02:49:35;;;;;;;5.55;4.60;;;;;;;7.52;64.16;98359.71;1747617;82;21691;-70
2021/05/03 02:52:02;;;;;;;5.00;4.23;;;;;;;7.53;64.08;98361.86;1752774;80;21169;-72
2021/05/03 02:54:28;;;;;;;4.90;4.25;;;;;;;7.52;63.92;98358.95;1747790;82;21583;-72
2021/05/03 02:56:54;;;;;;;4.50;4.10;;;;;;;7.52;63.86;98358.95;1764562;80;21175;-71
2021/05/03 02:59:20;;;;;;;5.75;4.47;;;;;;;7.55;63.88;98364.92;1756120;80;21185;-69
2021/05/03 03:01:46;;;;;;;4.50;4.08;;;;;;;7.54;63.70;98359.34;1747603;82;21357;-71
2021/05/03 03:04:12;;;;;;;5.30;4.42;;;;;;;7.54;63.72;98362.05;1746877;80;21138;-69
2021/05/03 03:06:38;;;;;;;4.87;4.35;;;;;;;7.53;63.86;98362.63;1748434;81;21212;-71
2021/05/03 03:09:05;;;;;;;6.28;4.45;;;;;;;7.56;63.82;98367.84;1744671;81;21303;-70
2021/05/03 03:11:31;;;;;;;5.75;4.78;;;;;;;7.55;64.02;98371.10;1744964;81;21173;-70
2021/05/03 03:13:57;;;;;;;6.78;5.12;;;;;;;7.58;64.12;98366.09;1700351;83;21193;-70
2021/05/03 03:16:26;;;;;;;6.17;4.87;;;;;;;7.60;64.29;98371.89;1743004;81;21137;-68
2021/05/03 03:18:53;;;;;;;6.42;5.47;;;;;;;7.62;64.36;98373.05;1740784;82;21166;-71
2021/05/03 03:21:19;;;;;;;7.97;5.75;;;;;;;7.64;64.50;98378.05;1740895;82;21204;-70
2021/05/03 03:23:45;;;;;;;6.55;5.45;;;;;;;7.63;64.61;98377.29;1740612;82;21169;-71
2021/05/03 03:26:10;;;;;;;7.28;5.65;;;;;;;7.66;64.70;98385.98;1740820;82;21300;-71
2021/05/03 03:28:36;;;;;;;7.28;5.70;;;;;;;7.66;64.83;98395.44;1756717;81;21331;-70
2021/05/03 03:31:02;;;;;;;6.35;5.47;;;;;;;7.69;65.04;98396.59;1748668;81;21331;-70
2021/05/03 03:33:28;;;;;;;7.50;5.58;;;;;;;7.72;64.83;98399.87;1745125;81;21706;-70
2021/05/03 03:35:54;;;;;;;7.15;5.70;;;;;;;7.72;64.86;98420.95;1748481;81;21320;-72
2021/05/03 03:38:20;;;;;;;6.33;5.15;;;;;;;7.71;64.84;98419.38;1749411;81;21299;-72
2021/05/03 03:40:46;;;;;;;7.17;5.03;;;;;;;7.72;64.84;98425.00;1740510;82;21169;-71
2021/05/03 03:43:12;;;;;;;5.80;4.97;;;;;;;7.74;64.87;98432.70;1740901;82;21397;-71
2021/05/03 03:45:38;;;;;;;5.17;4.67;;;;;;;7.76;64.80;98451.44;1740784;81;21188;-70
2021/05/03 03:48:06;;;;;;;6.03;4.50;;;;;;;7.76;64.96;98458.20;1750956;81;21194;-69
2021/05/03 03:50:32;;;;;;;7.78;4.70;;;;;;;7.77;64.78;98463.82;1744968;81;21177;-70
2021/05/03 03:52:58;;;;;;;5.05;4.28;;;;;;;7.76;64.65;98447.39;1752384;81;21164;-70
2021/05/03 03:55:25;;;;;;;5.95;4.95;;;;;;;7.77;64.66;98447.60;1744946;81;21166;-69
2021/05/03 03:57:51;;;;;;;5.65;4.50;;;;;;;7.78;64.75;98456.48;1741380;82;21138;-70
2021/05/03 04:00:18;;;;;;;6.47;5.00;;;;;;;7.82;64.84;98464.58;1748576;81;21998;-70
2021/05/03 04:02:47;;;;;;;6.70;4.97;;;;;;;7.79;64.91;98457.43;1719619;81;21193;-71
2021/05/03 04:08:06;;;;;;;5.53;4.72;;;;;;;7.77;64.98;98463.02;1749034;81;21154;-71
2021/05/03 04:21:16;;;;;;;7.70;6.12;;;;;;;7.73;65.63;98475.77;1752418;81;21173;-71
2021/05/03 04:23:50;;;;;;;8.38;6.33;;;;;;;7.74;65.77;98478.66;1743936;81;21205;-71
2021/05/03 04:26:14;;;;;;;9.05;6.53;;;;;;;7.77;65.96;98483.30;1752212;81;21599;-70
2021/05/03 04:28:40;;;;;;;8.10;6.42;;;;;;;7.76;66.03;98487.16;1756385;81;21156;-71
2021/05/03 04:31:06;;;;;;;10.15;7.70;;;;;;;7.75;66.47;98491.80;1740907;81;22409;-70
2021/05/03 04:33:32;;;;;;;9.70;7.78;;;;;;;7.75;66.59;98489.09;1741031;82;21181;-70
2021/05/03 04:35:59;;;;;;;10.15;8.10;;;;;;;7.76;66.84;98496.04;1744362;81;21600;-70
2021/05/03 04:38:26;;;;;;;11.10;9.03;;;;;;;7.77;66.96;98497.61;1748876;81;21172;-71
2021/05/03 04:40:52;;;;;;;11.70;8.57;;;;;;;7.75;67.18;98493.73;1745585;81;21153;-69
2021/05/03 04:43:18;;;;;;;11.00;9.25;;;;;;;7.76;67.31;98503.38;1748609;81;21173;-71
2021/05/03 04:45:45;;;;;;;10.38;8.85;;;;;;;7.80;67.48;98509.55;1748383;81;21098;-70
2021/05/03 04:48:11;;;;;;;11.38;9.63;;;;;;;7.84;67.55;98504.18;1756009;81;21164;-72
2021/05/03 04:50:37;;;;;;;13.32;9.23;;;;;;;7.87;67.43;98504.77;1740917;82;21504;-72
2021/05/03 04:53:03;;;;;;;11.43;9.45;;;;;;;7.84;67.36;98510.94;1740811;82;21323;-71
2021/05/03 04:55:29;;;;;;;11.63;9.70;;;;;;;7.81;67.62;98511.70;1749319;81;21662;-69
2021/05/03 04:57:55;;;;;;;12.10;9.70;;;;;;;7.80;67.79;98514.96;1751622;81;21308;-69
2021/05/03 05:00:22;;;;;;;13.05;9.58;;;;;;;7.84;67.69;98513.06;1744206;81;21315;-71
2021/05/03 05:02:48;;;;;;;11.12;9.58;;;;;;;7.89;67.61;98515.97;1722720;80;21208;-70
2021/05/03 05:05:15;;;;;;;10.85;9.75;;;;;;;7.94;67.62;98515.60;1755935;80;21166;-71
2021/05/03 05:07:41;;;;;;;12.33;9.95;;;;;;;7.98;67.41;98519.84;1756043;80;21681;-70
2021/05/03 05:10:08;;;;;;;11.88;9.63;;;;;;;7.96;67.39;98511.91;1760297;80;21709;-73
2021/05/03 05:12:34;;;;;;;12.25;10.00;;;;;;;7.96;67.49;98521.38;1747468;82;21156;-71
2021/05/03 05:15:01;;;;;;;12.10;10.08;;;;;;;8.04;67.42;98516.76;1747513;82;21166;-71
2021/05/03 05:17:27;;;;;;;10.90;9.65;;;;;;;8.12;67.36;98528.55;1751386;80;21180;-73
2021/05/03 05:19:53;;;;;;;11.45;9.60;;;;;;;8.18;67.13;98524.89;1748822;80;21173;-71
2021/05/03 05:22:19;;;;;;;11.15;9.50;;;;;;;8.23;67.04;98531.27;1750207;80;21172;-70
2021/05/03 05:24:45;;;;;;;11.45;9.45;;;;;;;8.31;66.92;98534.17;1751341;80;21134;-70
2021/05/03 05:27:11;;;;;;;11.48;9.65;;;;;;;8.37;66.56;98536.69;1751652;80;21527;-71
2021/05/03 05:29:37;;;;;;;12.40;10.60;;;;;;;8.43;66.32;98525.72;1758142;80;21144;-70
2021/05/03 05:32:04;;;;;;;11.30;10.00;;;;;;;8.57;66.13;98528.23;1751739;80;21138;-70
2021/05/03 05:34:30;;;;;;;10.82;9.58;;;;;;;8.96;65.40;98534.95;1751857;80;21180;-72
2021/05/03 05:36:56;;;;;;;10.50;9.40;;;;;;;8.96;65.40;98534.95;1750975;80;21180;-70
2021/05/03 05:39:22;;;;;;;10.25;8.88;;;;;;;9.05;64.98;98539.96;1755033;80;21303;-71
2021/05/03 05:41:48;;;;;;;11.73;9.23;;;;;;;9.13;64.73;98542.84;1747590;82;21338;-70
2021/05/03 05:44:14;;;;;;;11.40;8.85;;;;;;;9.16;64.70;98542.06;1760123;80;21314;-71
2021/05/03 05:46:40;;;;;;;11.75;9.78;;;;;;;9.16;64.54;98546.13;1751353;80;21185;-72
2021/05/03 05:49:07;;;;;;;10.82;9.10;;;;;;;9.16;64.71;98545.36;1730068;80;21185;-72
2021/05/03 05:51:33;;;;;;;11.75;10.23;;;;;;;9.15;64.31;98545.17;1752632;80;21571;-72
2021/05/03 05:53:59;;;;;;;11.40;9.63;;;;;;;9.07;64.56;98543.06;1755635;80;21175;-70
2021/05/03 05:56:25;;;;;;;9.65;8.63;;;;;;;9.05;64.66;98544.79;1747455;82;21173;-70
2021/05/03 05:58:51;;;;;;;10.20;8.60;;;;;;;9.07;64.66;98543.83;1747350;82;21207;-70
2021/05/03 06:01:17;;;;;;;10.10;8.35;;;;;;;9.01;64.44;98541.92;1750208;80;21516;-71
2021/05/03 06:03:43;;;;;;;9.03;7.80;;;;;;;8.95;64.53;98548.31;1756451;80;21263;-70
2021/05/03 06:06:11;;;;;;;9.70;8.38;;;;;;;8.94;64.45;98547.33;1751713;80;21164;-71
2021/05/03 06:08:37;;;;;;;8.78;7.87;;;;;;;8.95;64.37;98556.44;1754836;80;21143;-72
2021/05/03 06:11:03;;;;;;;8.00;7.20;;;;;;;8.99;64.58;98562.61;1751766;80;21144;-72
2021/05/03 06:13:29;;;;;;;7.12;6.33;;;;;;;9.10;64.37;98559.88;1751782;80;21698;-69
2021/05/03 06:15:55;;;;;;;6.50;5.83;;;;;;;9.25;63.88;98560.05;1757495;80;21132;-71
2021/05/03 06:18:21;;;;;;;6.70;5.97;;;;;;;9.34;63.77;98563.70;1758945;80;21603;-70
2021/05/03 06:20:48;;;;;;;6.40;5.30;;;;;;;9.46;63.59;98561.14;1756140;80;21156;-70
2021/05/03 06:23:14;;;;;;;5.87;5.35;;;;;;;9.54;63.05;98566.14;1756126;80;21157;-72
2021/05/03 06:25:41;;;;;;;4.67;4.15;;;;;;;9.62;62.78;98562.05;1751467;80;21168;-70
2021/05/03 06:28:07;;;;;;;5.55;4.97;;;;;;;9.59;62.21;98571.75;1749625;80;21173;-72
2021/05/03 06:30:33;;;;;;;5.50;5.00;;;;;;;9.55;62.32;98564.99;1755878;80;21622;-70
2021/05/03 06:32:59;;;;;;;7.05;5.00;;;;;;;9.66;62.48;98559.53;1750601;80;21172;-73
2021/05/03 06:35:25;;;;;;;7.85;5.37;;;;;;;9.75;62.24;98564.52;1758549;80;21174;-71
2021/05/03 06:37:51;;;;;;;5.62;5.03;;;;;;;9.82;62.04;98568.56;1754962;80;21173;-72
2021/05/03 06:40:17;;;;;;;5.10;4.60;;;;;;;9.90;62.09;98561.94;1756025;80;21181;-70
2021/05/03 06:42:43;;;;;;;5.33;4.83;;;;;;;9.89;61.67;98558.25;1752692;80;22275;-70
2021/05/03 06:45:10;;;;;;;5.58;4.67;;;;;;;9.81;61.56;98568.95;1754648;80;21197;-70
2021/05/03 06:47:37;;;;;;;5.90;4.85;;;;;;;9.69;61.84;98569.58;1752172;80;21142;-72
2021/05/03 06:50:05;;;;;;;5.60;5.08;;;;;;;9.68;61.87;98569.38;1760572;80;21593;-72
2021/05/03 06:52:31;;;;;;;6.12;5.47;;;;;;;9.60;62.13;98583.36;1747845;82;21217;-69
2021/05/03 06:54:57;;;;;;;6.12;5.53;;;;;;;9.61;62.27;98582.98;1747705;82;21722;-71
2021/05/03 06:57:23;;;;;;;6.20;5.50;;;;;;;9.70;62.41;98574.42;1747594;82;21174;-72
2021/05/03 06:59:49;;;;;;;6.47;5.78;;;;;;;9.81;61.92;98583.27;1747605;82;21768;-70
2021/05/03 07:02:15;;;;;;;6.85;6.17;;;;;;;10.00;62.31;98581.44;1758793;80;21357;-71
2021/05/03 07:04:41;;;;;;;7.47;6.77;;;;;;;10.27;61.33;98586.36;1749786;80;21657;-72
2021/05/03 07:07:07;;;;;;;6.58;5.97;;;;;;;10.22;60.97;98587.52;1747566;82;21183;-71
2021/05/03 07:09:34;;;;;;;7.75;6.95;;;;;;;10.01;61.17;98559.14;1747860;82;21185;-70
2021/05/03 07:12:08;;;;;;;8.17;7.33;;;;;;;10.23;61.03;98589.08;1751700;80;21203;-70
2021/05/03 07:14:30;;;;;;;8.08;7.28;;;;;;;10.28;61.03;98591.97;1759940;80;21653;-70
2021/05/03 07:16:56;;;;;;;8.68;7.67;;;;;;;10.36;61.06;98581.25;1756462;80;21136;-70
2021/05/03 07:19:22;;;;;;;8.05;7.25;;;;;;;10.56;60.59;98586.19;1755626;80;21175;-69
2021/05/03 07:21:48;;;;;;;8.80;7.90;;;;;;;10.62;59.97;98583.22;1749533;80;21180;-70
2021/05/03 07:24:14;;;;;;;8.58;7.67;;;;;;;10.62;60.05;98592.72;1747659;81;21371;-70
2021/05/03 07:26:40;;;;;;;9.33;8.30;;;;;;;10.71;60.11;98590.31;1747575;82;21788;-70
2021/05/03 07:29:06;;;;;;;9.33;8.43;;;;;;;10.75;59.52;98596.50;1751430;80;21179;-71
2021/05/03 07:31:32;;;;;;;9.40;8.48;;;;;;;10.76;59.61;98595.91;1748798;80;21575;-71
2021/05/03 07:33:59;;;;;;;9.88;8.88;;;;;;;10.84;59.45;98592.73;1749023;80;21133;-70
2021/05/03 07:36:25;;;;;;;9.78;8.63;;;;;;;10.99;59.65;98592.01;1755588;80;21157;-70
2021/05/03 07:38:52;;;;;;;9.60;8.70;;;;;;;11.14;59.22;98595.38;1753233;80;21493;-69
2021/05/03 07:41:18;;;;;;;9.48;8.48;;;;;;;11.17;58.95;98597.29;1752021;80;21697;-70
2021/05/03 07:43:44;;;;;;;9.55;8.58;;;;;;;11.08;59.26;98595.64;1753269;80;21164;-69
2021/05/03 07:46:11;;;;;;;9.40;8.40;;;;;;;11.03;58.76;98592.00;1750506;80;21615;-70
2021/05/03 07:48:37;;;;;;;9.53;8.48;;;;;;;10.86;59.02;98592.34;1751711;80;21587;-72
2021/05/03 07:51:04;;;;;;;7.80;6.83;;;;;;;10.80;58.93;98605.59;1756071;80;21188;-71
2021/05/03 07:53:30;;;;;;;8.08;7.30;;;;;;;10.92;58.29;98602.95;1747931;82;21173;-70
2021/05/03 07:55:56;;;;;;;7.65;6.78;;;;;;;10.99;58.11;98604.23;1759796;80;21339;-72
2021/05/03 07:58:22;;;;;;;6.97;6.37;;;;;;;11.11;57.61;98617.34;1749178;80;21620;-71
2021/05/03 08:00:49;;;;;;;6.75;5.72;;;;;;;11.26;56.54;98598.17;1751250;80;21313;-69
2021/05/03 08:03:17;;;;;;;6.53;5.83;;;;;;;11.50;55.99;98602.58;1747448;81;21188;-72
2021/05/03 08:05:44;;;;;;;6.25;5.65;;;;;;;11.71;55.86;98596.73;1756000;80;21176;-70
2021/05/03 08:08:10;;;;;;;6.20;5.60;;;;;;;11.94;54.94;98614.53;1750600;80;21555;-71
2021/05/03 08:10:36;;;;;;;5.87;5.30;;;;;;;12.00;54.19;98605.32;1756068;80;21537;-69
2021/05/03 08:13:02;;;;;;;7.10;5.00;;;;;;;12.06;53.88;98572.41;1749576;80;21184;-70
2021/05/03 08:15:28;;;;;;;6.67;5.97;;;;;;;12.08;53.78;98608.13;1744498;80;21207;-70
2021/05/03 08:17:54;;;;;;;5.60;5.00;;;;;;;12.14;53.53;98613.89;1750800;80;21169;-75
2021/05/03 08:20:21;;;;;;;5.95;4.90;;;;;;;12.08;53.43;98601.92;1749086;80;22478;-71
2021/05/03 08:22:47;;;;;;;5.50;5.00;;;;;;;12.03;53.43;98626.30;1744851;82;21181;-69
2021/05/03 08:25:13;;;;;;;5.72;5.10;;;;;;;11.99;53.65;98614.08;1747048;80;21196;-69
2021/05/03 08:27:39;;;;;;;5.47;4.90;;;;;;;12.03;54.05;98609.17;1747000;82;21658;-69
2021/05/03 08:30:06;;;;;;;6.47;4.72;;;;;;;12.14;53.17;98613.89;1747042;81;21371;-71
2021/05/03 08:32:32;;;;;;;5.42;4.70;;;;;;;12.17;53.07;98606.29;1747004;82;21160;-70
2021/05/03 08:34:58;;;;;;;4.87;4.08;;;;;;;12.14;52.24;98609.23;1749967;80;21690;-70
2021/05/03 08:37:24;;;;;;;5.40;4.00;;;;;;;12.01;51.80;98621.84;1747420;82;21340;-72
2021/05/03 08:39:50;;;;;;;4.85;3.70;;;;;;;12.00;51.52;98618.92;1747343;80;21172;-70
2021/05/03 08:42:17;;;;;;;4.58;4.08;;;;;;;12.01;51.71;98625.16;1747493;80;21161;-69
2021/05/03 08:44:46;;;;;;;4.70;4.03;;;;;;;12.18;51.51;98626.28;1760855;80;21188;-71
2021/05/03 08:47:11;;;;;;;4.53;4.00;;;;;;;12.26;51.43;98635.13;1777677;80;21168;-70
2021/05/03 08:49:54;;;;;;;4.28;3.87;;;;;;;12.54;50.49;98631.23;1766015;80;21180;-69
2021/05/03 08:52:23;;;;;;;4.67;4.17;;;;;;;12.81;49.47;98654.38;1756681;80;21196;-70
2021/05/03 08:54:42;;;;;;;4.90;4.25;;;;;;;12.86;48.72;98614.98;1745803;81;21620;-70
2021/05/03 08:57:08;;;;;;;4.80;3.90;;;;;;;12.91;49.10;98626.78;1747328;82;21145;-70
2021/05/03 08:59:35;;;;;;;4.53;4.00;;;;;;;13.14;48.85;98624.64;1747269;82;21188;-71
2021/05/03 09:02:04;;;;;;;6.05;4.00;;;;;;;13.31;48.20;98629.63;1747302;82;21177;-70
2021/05/03 09:04:30;;;;;;;4.03;3.62;;;;;;;13.10;48.54;98629.40;1747893;80;21158;-70
2021/05/03 09:07:08;;;;;;;5.37;4.15;;;;;;;13.05;48.40;98638.05;1739384;82;21153;-70
2021/05/03 09:09:39;;;;;;;4.58;3.98;;;;;;;12.86;48.30;98632.11;1739253;82;21180;-71
2021/05/03 09:12:07;;;;;;;3.92;3.52;;;;;;;12.85;48.06;98646.16;1754283;80;21153;-70
2021/05/03 09:14:34;;;;;;;4.70;3.77;;;;;;;12.81;48.23;98638.62;1761773;81;22671;-70
2021/05/03 09:17:00;;;;;;;4.47;4.00;;;;;;;12.96;48.56;98638.58;1739662;82;21171;-71
2021/05/03 09:19:26;;;;;;;4.78;3.90;;;;;;;13.09;48.42;98651.02;1748803;81;21133;-70
2021/05/03 09:21:53;;;;;;;3.92;3.50;;;;;;;13.03;47.99;98654.04;1769788;81;21162;-70
2021/05/03 09:24:28;;;;;;;4.20;3.80;;;;;;;13.03;48.39;98645.27;1761726;81;21169;-70
2021/05/03 09:27:02;;;;;;;4.05;3.65;;;;;;;13.37;48.63;98654.46;1739316;81;21173;-70
2021/05/03 09:29:29;;;;;;;3.45;3.15;;;;;;;13.59;47.65;98648.05;1739295;81;21185;-70
2021/05/03 09:32:02;;;;;;;4.10;3.70;;;;;;;13.38;47.56;98667.70;1739393;82;21173;-71
2021/05/03 09:34:29;;;;;;;4.17;3.70;;;;;;;13.46;47.33;98680.02;1749519;81;21145;-69
2021/05/03 09:37:18;;;;;;;4.55;3.55;;;;;;;13.15;47.96;98639.03;1767213;80;21157;-70
2021/05/03 09:39:46;;;;;;;5.20;4.08;;;;;;;13.45;47.49;98675.77;1739391;82;21169;-73
2021/05/03 09:42:12;;;;;;;4.58;3.80;;;;;;;13.54;47.64;98675.22;1729731;80;21149;-70
2021/05/03 09:44:38;;;;;;;4.60;3.90;;;;;;;13.76;47.47;98667.41;1768603;80;21169;-71
2021/05/03 09:47:04;;;;;;;4.67;3.55;;;;;;;13.75;47.31;98694.53;1739273;82;21377;-71
2021/05/03 09:49:30;;;;;;;4.28;3.87;;;;;;;13.65;47.84;98685.34;1740320;81;21650;-70
2021/05/03 09:51:58;;;;;;;4.65;4.12;;;;;;;13.71;47.92;98693.81;1739488;82;21157;-69
2021/05/03 09:54:29;;;;;;;4.03;3.62;;;;;;;13.86;47.41;98688.84;1739636;81;21160;-70
2021/05/03 09:57:05;;;;;;;4.05;3.67;;;;;;;13.95;47.61;98700.77;1739277;82;21169;-69
2021/05/03 09:59:40;;;;;;;4.75;3.60;;;;;;;14.27;47.08;98694.48;1739235;82;21161;-70
2021/05/03 10:02:20;;;;;;;4.10;3.50;;;;;;;14.01;46.26;98704.38;1739302;82;21177;-71
2021/05/03 10:04:52;;;;;;;4.80;4.30;;;;;;;13.39;46.56;98689.69;1741079;82;21149;-71
2021/05/03 10:07:20;;;;;;;4.67;4.12;;;;;;;12.94;47.43;98711.05;1752849;82;21161;-70
2021/05/03 10:09:50;;;;;;;6.25;4.28;;;;;;;12.79;47.97;98714.55;1752942;82;21166;-71
2021/05/03 10:12:16;;;;;;;4.60;4.12;;;;;;;12.55;50.62;98728.13;1752578;82;21151;-69
2021/05/03 10:14:43;;;;;;;5.75;4.97;;;;;;;12.10;52.69;98726.14;1752810;82;21616;-72
2021/05/03 10:17:10;;;;;;;6.28;5.22;;;;;;;11.48;54.07;98728.66;1752994;81;21149;-71
2021/05/03 10:19:36;;;;;;;5.92;5.30;;;;;;;10.83;57.07;98722.95;1752964;81;21188;-70
2021/05/03 10:22:03;;;;;;;6.60;5.05;;;;;;;10.71;57.94;98728.06;1752852;82;21347;-70
2021/05/03 10:24:29;;;;;;;5.83;5.22;;;;;;;10.89;57.98;98725.42;1753017;80;21168;-68
2021/05/03 10:26:55;;;;;;;5.55;4.97;;;;;;;11.14;56.33;98730.50;1752830;82;21354;-69
2021/05/03 10:29:26;;;;;;;6.53;5.85;;;;;;;11.25;55.32;98742.83;1752893;82;21188;-71
2021/05/03 10:32:01;;;;;;;4.95;4.45;;;;;;;11.37;56.01;98734.00;1752767;82;21211;-72
2021/05/03 10:34:38;;;;;;;5.80;4.70;;;;;;;11.30;58.82;98749.20;1752313;82;21164;-71
2021/05/03 10:37:25;;;;;;;5.67;4.78;;;;;;;11.21;59.41;98746.74;1755207;80;21130;-70
2021/05/03 10:39:51;;;;;;;6.60;6.00;;;;;;;11.26;59.95;98751.75;1760226;80;21179;-71
2021/05/03 10:42:17;;;;;;;6.50;5.90;;;;;;;11.51;59.67;98746.11;1752653;82;21307;-70
2021/05/03 10:45:09;;;;;;;6.33;5.72;;;;;;;11.64;59.16;98743.08;1752789;82;21162;-72
2021/05/03 10:47:51;;;;;;;7.00;5.80;;;;;;;11.66;58.25;98739.38;1777502;80;21128;-71
2021/05/03 10:50:33;;;;;;;6.25;5.70;;;;;;;11.48;57.84;98738.76;1782646;80;21207;-71
2021/05/03 10:53:23;;;;;;;6.90;5.53;;;;;;;11.57;57.65;98752.69;1783651;80;21149;-71
2021/05/03 10:55:54;;;;;;;7.80;5.80;;;;;;;12.01;57.55;98742.95;1747335;80;21169;-71
2021/05/03 10:58:20;;;;;;;5.65;5.15;;;;;;;12.77;56.37;98733.28;1751767;81;21190;-71
2021/05/03 11:01:04;;;;;;;7.12;5.40;;;;;;;13.00;53.27;98770.12;1779582;80;21180;-71
2021/05/03 11:03:59;;;;;;;4.47;3.60;;;;;;;12.62;53.17;98790.67;1783136;80;22170;-71
2021/05/03 11:06:40;;;;;;;3.62;3.30;;;;;;;12.38;53.32;98764.50;1753037;80;21160;-71
2021/05/03 11:11:59;;;;;;;5.95;4.67;;;;;;;11.36;56.34;98775.38;1764059;80;21160;-71
2021/05/03 11:14:27;;;;;;;5.20;4.70;;;;;;;10.88;56.66;98774.15;1758436;80;21152;-70
2021/05/03 11:16:56;;;;;;;7.60;4.75;;;;;;;10.72;58.23;98764.34;1766512;80;21148;-70
2021/05/03 11:19:53;;;;;;;5.47;4.80;;;;;;;10.85;57.66;98782.30;1756274;80;21153;-72
2021/05/03 11:22:16;;;;;;;5.78;5.05;;;;;;;11.06;57.48;98771.90;1755836;80;21217;-71
2021/05/03 11:24:47;;;;;;;5.25;4.20;;;;;;;11.35;56.90;98784.72;1756668;80;21165;-70
2021/05/03 11:27:19;;;;;;;5.85;3.77;;;;;;;11.55;55.56;98799.91;1760908;80;21108;-71
2021/05/03 11:32:35;;;;;;;4.97;3.52;;;;;;;11.61;54.07;98797.52;1673922;85;21185;-71
2021/05/03 11:35:10;;;;;;;5.12;3.90;;;;;;;11.92;53.66;98792.42;1731170;80;21155;-71
2021/05/03 11:37:43;;;;;;;3.98;3.30;;;;;;;12.09;53.23;98786.62;1752632;80;22067;-71
2021/05/03 11:43:22;;;;;;;4.28;3.67;;;;;;;12.70;52.26;98790.00;1753398;82;21559;-71
2021/05/03 11:45:30;;;;;;;5.00;4.10;;;;;;;12.45;51.36;98797.11;1749013;82;21241;-70
2021/05/03 11:47:59;;;;;;;4.60;4.05;;;;;;;11.82;52.40;98791.90;1753141;82;21181;-70
2021/05/03 11:50:26;;;;;;;4.15;3.75;;;;;;;11.51;53.54;98795.86;1773343;80;21177;-70
2021/05/03 11:52:52;;;;;;;4.78;4.20;;;;;;;11.64;54.31;98800.20;1755006;80;21161;-70
2021/05/03 11:55:22;;;;;;;5.20;3.92;;;;;;;11.99;53.83;98789.62;1752905;82;21157;-70
2021/05/03 11:57:49;;;;;;;4.37;3.42;;;;;;;12.32;53.17;98790.64;1771011;80;21728;-71
2021/05/03 12:00:20;;;;;;;3.98;3.10;;;;;;;12.45;52.93;98802.56;1734213;80;21156;-71